Howard City, MI

7:59 AM EDT on July 23, 2017 (GMT -0400)
Smits Residence | | Change Station

Elev 925 ft 43.40 °N, 85.40 °W | Updated 17 seconds ago

Rain
Rain
67.5 °F
Feels Like 67.5 °F
N
2.0
Wind Variable Wind from NW

Today
High -- | Low -- °F
--% Chance of Precip.
Yesterday
High -- | Low -- °F
Precip. -- in
Pressure 29.80 in
Visibility 10.0 miles
Clouds Scattered Clouds 300 ft
Scattered Clouds 900 ft
Overcast 1500 ft
Dew Point 66 °F
Humidity 96%
Rainfall 0.02 in
Snow Depth Not available.
6:22 AM 9:13 PM
New Moon, 0% visible
METAR KRQB 231154Z AUTO 00000KT 10SM SCT003 SCT009 OVC015 20/19 A2980 RMK AO2 60013 70069 T01970186 10200 20190
Pressure 29.80 in
Visibility 10.0 miles
Clouds Scattered Clouds 300 ft
Scattered Clouds 900 ft
Overcast 1500 ft
Dew Point 66 °F
Humidity 96%
Rainfall 0.02 in
Snow Depth Not available.
6:22 AM 9:13 PM
New Moon, 0% visible
METAR KRQB 231154Z AUTO 00000KT 10SM SCT003 SCT009 OVC015 20/19 A2980 RMK AO2 60013 70069 T01970186 10200 20190

Get Severe Weather Alerts

Thanks for signing up!

Be on the lookout for a verification email in your inbox.

You'll start receiving the daily forecast at 6 AM.

×

10-Day Weather Forecast

Almanac

Astronomy

Jul. 23, 2017 Rise Set
Actual Time
Civil Twilight
Nautical Twilight
Astronomical Twilight
Moon
Length of Visible Light
Length of Day
Tomorrow will be .
, % of the Moon is Illuminated

Today's Extremes

State Highs State Lows

Community

WunderPhotos

Category 6

Welcome to Category 6. This is the collective home for Weather Underground's featured writeups by Dr. Jeff Masters (right), Bob Henson (left), Chris Burt, and other regular contributors.

Nearby

Air Quality

  Air Quality AQ Index Pollutant
Not available.

Snow Depth

Station Depth Elevation

Earthquake Activity

City Distance Mag. Time & Date
Minimum magnitude displayed is 2.5.

Coastal Water Temperatures

Place Temperature

Stations

Nearby Weather Stations

Station Location Temp. Windchill Dew Point Humidity Wind Precip. Elev Updated Type
                   

Watches & Warnings

There are currently no watches in effect.